Golden Belle Hana — D7NV — position and weather

sailwx.info

Track history (hours):
 
Tides and Currents Weather Stations Pressure Air Temp Water Temp Dewpoint Dewpoint Depression Visibility Wind Speed Wind Dir Waves Ship Positions

Golden Belle Hana

Last reported at 2017-Nov-08 23:03 UTC. Time now 2017-Dec-12 17:59 UTC.
Position N 35°06' E 139°42'.
Warning: this ship's position is 33 days out of date.

Length 103 m; draft 7.3 m.

Type: Ship (hazmat cat B). MMSI: 440251000.

Date/timePositionNaut miles runAvg speedWind from/ knotsBaromVisibWave heightAir tempDewpointWater temp
2017-Nov-08 23:03N 35°06' E 139°42'112.1
2017-Nov-08 22:57N 35°07' E 139°43'612.5
2017-Nov-08 22:30N 35°12' E 139°46'611.4
2017-Nov-08 22:01N 35°17' E 139°45'611.6
2017-Nov-08 21:31N 35°23' E 139°42'611.8
2017-Nov-08 21:00N 35°27' E 139°48'611.7
2017-Nov-08 20:31N 35°30' E 139°54'510.2
2017-Nov-08 20:00N 35°30' E 140°00'0 0.1
2017-Nov-08 19:25N 35°30' E 140°00'0 0.0
2017-Nov-08 18:49N 35°30' E 140°00'0 0.1
2017-Nov-08 18:19N 35°30' E 140°00'0 0.0
2017-Nov-08 17:37N 35°30' E 140°00'0 0.0
2017-Nov-08 16:13N 35°30' E 140°00'1 2.5
2017-Nov-08 16:00N 35°30' E 139°59'2 4.0
2017-Nov-08 15:28N 35°32' E 139°58'3 0.2
2017-Nov-08 00:15N 35°30' E 140°01'2 4.6
2017-Nov-07 23:53N 35°31' E 139°60'0 0.8
2017-Nov-07 23:26N 35°31' E 139°59'0 0.0
2017-Nov-07 22:55N 35°31' E 139°59'0 0.2
2017-Nov-07 22:29N 35°31' E 139°59'0 0.0
2017-Nov-07 21:56N 35°31' E 139°59'0 0.1
2017-Nov-07 21:07N 35°31' E 139°59'0 0.2
2017-Nov-07 20:43N 35°31' E 139°59'4 9.9
2017-Nov-07 20:19N 35°30' E 139°55'412.8
2017-Nov-07 20:00N 35°28' E 139°51'5 9.6
2017-Nov-07 19:30N 35°24' E 139°47'5 9.9
2017-Nov-07 19:00N 35°20' E 139°44'5 9.9
2017-Nov-07 18:30N 35°16' E 139°47'510.5
2017-Nov-07 18:00N 35°10' E 139°46'610.5
2017-Nov-07 17:27N 35°06' E 139°42'  
Track history (hours):
 
Tides and Currents Weather Stations Pressure Air Temp Water Temp Dewpoint Dewpoint Depression Visibility Wind Speed Wind Dir Waves Ship Positions

Golden Belle Hana

Last reported at 2017-Nov-08 23:03 UTC. Time now 2017-Dec-12 17:59 UTC.
Position N 35°06' E 139°42'.
Warning: this ship's position is 33 days out of date.

Length 103 m; draft 7.3 m.

Type: Ship (hazmat cat B). MMSI: 440251000.

Date/timePositionNaut miles runAvg speedWind from/ knotsBaromVisibWave heightAir tempDewpointWater temp
2017-Nov-08 23:03N 35°06' E 139°42'112.1
2017-Nov-08 22:57N 35°07' E 139°43'612.5
2017-Nov-08 22:30N 35°12' E 139°46'611.4
2017-Nov-08 22:01N 35°17' E 139°45'611.6
2017-Nov-08 21:31N 35°23' E 139°42'611.8
2017-Nov-08 21:00N 35°27' E 139°48'611.7
2017-Nov-08 20:31N 35°30' E 139°54'510.2
2017-Nov-08 20:00N 35°30' E 140°00'0 0.1
2017-Nov-08 19:25N 35°30' E 140°00'0 0.0
2017-Nov-08 18:49N 35°30' E 140°00'0 0.1
2017-Nov-08 18:19N 35°30' E 140°00'0 0.0
2017-Nov-08 17:37N 35°30' E 140°00'0 0.0
2017-Nov-08 16:13N 35°30' E 140°00'1 2.5
2017-Nov-08 16:00N 35°30' E 139°59'2 4.0
2017-Nov-08 15:28N 35°32' E 139°58'3 0.2
2017-Nov-08 00:15N 35°30' E 140°01'2 4.6
2017-Nov-07 23:53N 35°31' E 139°60'0 0.8
2017-Nov-07 23:26N 35°31' E 139°59'0 0.0
2017-Nov-07 22:55N 35°31' E 139°59'0 0.2
2017-Nov-07 22:29N 35°31' E 139°59'0 0.0
2017-Nov-07 21:56N 35°31' E 139°59'0 0.1
2017-Nov-07 21:07N 35°31' E 139°59'0 0.2
2017-Nov-07 20:43N 35°31' E 139°59'4 9.9
2017-Nov-07 20:19N 35°30' E 139°55'412.8
2017-Nov-07 20:00N 35°28' E 139°51'5 9.6
2017-Nov-07 19:30N 35°24' E 139°47'5 9.9
2017-Nov-07 19:00N 35°20' E 139°44'5 9.9
2017-Nov-07 18:30N 35°16' E 139°47'510.5
2017-Nov-07 18:00N 35°10' E 139°46'610.5
2017-Nov-07 17:27N 35°06' E 139°42'  

Dump ship's entire track history